Ballico, California
Current Conditions -  °F | °C
As of 10:15 PM on Sunday 25 Jan 2015 (Local Time) from KMER Reporting Station
Overcast Overcast  
Wind Chill: 34°   Ceiling: 100
Heat Index: 37°   Visibility: 0mi
Dew Point: 37°   Wind: 5mph
Humidity: 100%   Direction: 110°ESE
Pressure: 30.11"   Gusts: NA
Location:  37.45°N, 120.7°W
Report Text: KMER 260615Z AUTO 11004KT M1/4SM OVC001 03/03 A3011 RMK AO1
Loading
Personal Weather Stations






























Interactive Weather Map New forecast layout! Learn more

10-Day Weather Forecast

Advertisements
Track Severe Weather on mobile